Terminal Aerodrome Forecast
Issued by NWS

Home | Current Version | Previous Version | Text Only | Print | Product List | Glossary On
Versions: 1 2 3 4 5 6 7 8 9 10 11 12 13 14 15 16 17 18 19 20 21 22 23 24 25
000
FTUS43 KMQT 180707 AAA
TAFSAW
TAF AMD
KSAW 180707Z 1807/1906 29007KT 6SM -SHRA BR OVC005
     FM181200 32012G21KT P6SM OVC008
     FM181800 31012G19KT P6SM BKN020
     FM182200 31010KT P6SM BKN040
     FM190100 31006KT P6SM BKN070=

USA.gov is the U.S. government's official web portal to all federal, state and local government web resources and services.